createdAt,value
2023-11-07T00:01:54.762Z,3.91
2023-11-07T00:04:22.399Z,3.92
2023-11-07T00:06:51.528Z,3.91
2023-11-07T00:09:19.310Z,4.10
2023-11-07T00:11:47.945Z,4.22
2023-11-07T00:14:15.905Z,4.08
2023-11-07T00:16:43.816Z,4.09
2023-11-07T00:19:11.505Z,4.19
2023-11-07T00:21:39.257Z,4.17
2023-11-07T00:24:07.940Z,4.12
2023-11-07T00:26:35.769Z,4.19
2023-11-07T00:29:03.451Z,4.34
2023-11-07T00:31:31.927Z,4.38
2023-11-07T00:33:59.962Z,4.34
2023-11-07T00:36:28.018Z,4.42
2023-11-07T00:38:56.364Z,4.44
2023-11-07T00:41:25.020Z,4.45
2023-11-07T00:43:53.045Z,4.41
2023-11-07T00:46:20.836Z,4.35
2023-11-07T00:48:48.652Z,4.32
2023-11-07T00:51:16.347Z,4.27
2023-11-07T00:53:44.060Z,4.41
2023-11-07T00:56:11.724Z,4.69
2023-11-07T00:58:39.337Z,4.74
2023-11-07T01:01:07.218Z,4.83
2023-11-07T01:03:34.890Z,4.88
2023-11-07T01:06:03.157Z,4.93
2023-11-07T01:08:30.997Z,4.88
2023-11-07T01:10:58.820Z,4.83
2023-11-07T01:13:27.206Z,4.85
2023-11-07T01:15:54.905Z,4.84
2023-11-07T01:18:23.305Z,4.85
2023-11-07T01:20:51.217Z,4.87
2023-11-07T01:23:18.839Z,4.82
2023-11-07T01:25:46.593Z,4.87
2023-11-07T01:28:14.473Z,5.03
2023-11-07T01:30:42.327Z,5.15
2023-11-07T01:33:11.497Z,5.30
2023-11-07T01:35:39.402Z,5.22
2023-11-07T01:38:07.067Z,5.10
2023-11-07T01:40:35.463Z,4.99
2023-11-07T01:43:14.050Z,5.09
2023-11-07T01:45:43.353Z,4.72
2023-11-07T01:48:19.273Z,4.27
2023-11-07T01:50:51.532Z,4.00
2023-11-07T01:53:21.459Z,3.86
2023-11-07T01:55:49.851Z,3.87
2023-11-07T01:58:19.585Z,4.02
2023-11-07T02:00:49.050Z,4.06
2023-11-07T02:03:17.392Z,3.97
2023-11-07T02:05:46.429Z,3.90
2023-11-07T02:08:14.465Z,3.94
2023-11-07T02:10:42.909Z,3.83
2023-11-07T02:13:12.170Z,3.88
2023-11-07T02:15:40.567Z,3.80
2023-11-07T02:18:08.386Z,3.79
2023-11-07T02:20:40.414Z,3.62
2023-11-07T02:23:25.842Z,3.34
2023-11-07T02:25:53.994Z,3.49
2023-11-07T02:28:21.812Z,3.56
2023-11-07T02:30:49.742Z,3.53
2023-11-07T02:33:17.537Z,3.42
2023-11-07T02:35:45.353Z,3.46
2023-11-07T02:38:13.706Z,3.47
2023-11-07T02:40:41.624Z,3.45
2023-11-07T02:43:10.049Z,3.38
2023-11-07T02:45:39.012Z,3.41
2023-11-07T02:48:07.885Z,3.41
2023-11-07T02:50:35.854Z,3.49
2023-11-07T02:53:04.545Z,3.40
2023-11-07T02:55:32.198Z,3.30
2023-11-07T02:57:59.837Z,3.28
2023-11-07T03:00:28.278Z,3.18
2023-11-07T03:02:57.179Z,3.19
2023-11-07T03:05:25.187Z,3.07
2023-11-07T03:07:52.943Z,3.07
2023-11-07T03:10:20.864Z,3.15
2023-11-07T03:12:48.658Z,3.18
2023-11-07T03:15:20.345Z,3.13
2023-11-07T03:17:48.579Z,3.11
2023-11-07T03:20:18.132Z,3.17
2023-11-07T03:22:45.939Z,3.11
2023-11-07T03:25:13.614Z,3.16
2023-11-07T03:27:41.200Z,3.12
2023-11-07T03:30:10.196Z,3.13
2023-11-07T03:32:38.671Z,3.11
2023-11-07T03:35:06.486Z,3.22
2023-11-07T03:37:34.119Z,3.32
2023-11-07T03:40:01.802Z,3.40
2023-11-07T03:42:30.713Z,3.56
2023-11-07T03:44:58.404Z,3.75
2023-11-07T03:47:26.752Z,3.97
2023-11-07T03:49:54.364Z,4.20
2023-11-07T03:52:22.110Z,4.52
2023-11-07T03:54:49.770Z,4.78
2023-11-07T03:57:17.600Z,5.07
2023-11-07T03:59:48.074Z,5.25
2023-11-07T04:02:15.747Z,5.57
2023-11-07T04:04:43.499Z,5.66
2023-11-07T04:07:11.342Z,5.83
2023-11-07T04:09:39.041Z,5.93
2023-11-07T04:12:07.572Z,6.00
2023-11-07T04:14:35.544Z,5.89
2023-11-07T04:17:06.190Z,5.72
2023-11-07T04:19:35.091Z,5.59
2023-11-07T04:22:05.566Z,5.53
2023-11-07T04:24:33.345Z,5.56
2023-11-07T04:27:01.734Z,5.60
2023-11-07T04:29:29.343Z,5.59
2023-11-07T04:31:56.942Z,5.68
2023-11-07T04:34:24.611Z,5.66
2023-11-07T04:36:56.391Z,5.76
2023-11-07T04:39:24.415Z,5.85
2023-11-07T04:41:53.666Z,6.06
2023-11-07T04:44:21.585Z,6.28
2023-11-07T04:46:49.302Z,6.63
2023-11-07T04:49:17.175Z,7.00
2023-11-07T04:51:44.874Z,7.38
2023-11-07T04:54:12.455Z,7.79
2023-11-07T04:56:40.077Z,8.38
2023-11-07T04:59:07.655Z,9.13
2023-11-07T05:01:35.713Z,9.77
2023-11-07T05:04:03.930Z,10.29
2023-11-07T05:06:32.212Z,10.53
2023-11-07T05:09:00.342Z,10.75
2023-11-07T05:11:28.993Z,10.82
2023-11-07T05:13:56.801Z,10.80
2023-11-07T05:16:25.789Z,10.64
2023-11-07T05:18:54.943Z,10.55
2023-11-07T05:21:23.020Z,10.38
2023-11-07T05:23:50.854Z,10.28
2023-11-07T05:26:18.749Z,10.21
2023-11-07T05:28:46.426Z,10.11
2023-11-07T05:31:14.225Z,9.85
2023-11-07T05:33:43.422Z,9.83
2023-11-07T05:36:11.375Z,9.87
2023-11-07T05:38:40.184Z,10.02
2023-11-07T05:41:12.589Z,10.11
2023-11-07T05:43:44.401Z,10.44
2023-11-07T05:46:12.648Z,10.74
2023-11-07T05:48:41.151Z,11.17
2023-11-07T05:51:09.842Z,11.43
2023-11-07T05:53:37.537Z,11.50
2023-11-07T05:56:06.367Z,11.84
2023-11-07T05:58:34.150Z,12.11
2023-11-07T06:01:01.884Z,12.47
2023-11-07T06:03:29.684Z,12.65
2023-11-07T06:05:57.578Z,12.89
2023-11-07T06:08:25.373Z,13.17
2023-11-07T06:10:53.074Z,13.53
2023-11-07T06:13:20.679Z,13.69
2023-11-07T06:15:48.318Z,13.77
2023-11-07T06:18:16.213Z,14.00
2023-11-07T06:20:44.131Z,14.17
2023-11-07T06:23:12.333Z,14.50
2023-11-07T06:25:40.190Z,14.81
2023-11-07T06:28:09.919Z,15.10
2023-11-07T06:30:38.990Z,15.50
2023-11-07T06:33:06.974Z,15.83
2023-11-07T06:35:35.255Z,15.67
2023-11-07T06:38:03.203Z,15.78
2023-11-07T06:40:30.874Z,15.80
2023-11-07T06:42:59.323Z,15.70
2023-11-07T06:45:26.992Z,15.72
2023-11-07T06:47:55.427Z,15.93
2023-11-07T06:50:23.134Z,16.07
2023-11-07T06:52:52.896Z,16.09
2023-11-07T06:55:26.803Z,16.17
2023-11-07T06:57:57.124Z,16.02
2023-11-07T07:00:28.463Z,16.01
2023-11-07T07:02:58.139Z,15.86
2023-11-07T07:05:27.510Z,15.80
2023-11-07T07:07:56.243Z,15.73
2023-11-07T07:10:25.343Z,15.49
2023-11-07T07:12:52.972Z,15.38
2023-11-07T07:15:20.949Z,15.31
2023-11-07T07:17:48.745Z,15.23
2023-11-07T07:20:16.485Z,15.16
2023-11-07T07:22:45.961Z,15.04
2023-11-07T07:25:22.012Z,14.79
2023-11-07T07:27:51.710Z,14.63
2023-11-07T07:30:27.790Z,14.09
2023-11-07T07:32:56.958Z,13.65
2023-11-07T07:35:24.877Z,13.18
2023-11-07T07:37:55.121Z,12.97
2023-11-07T07:40:27.763Z,12.97
2023-11-07T07:42:59.795Z,13.02
2023-11-07T07:45:28.107Z,13.06
2023-11-07T07:47:58.670Z,12.99
2023-11-07T07:50:26.939Z,12.82
2023-11-07T07:52:57.799Z,12.77
2023-11-07T07:55:34.983Z,12.76
2023-11-07T07:58:04.971Z,12.63
2023-11-07T08:00:33.045Z,12.63
2023-11-07T08:03:08.648Z,12.57
2023-11-07T08:05:42.045Z,12.44
2023-11-07T08:08:12.680Z,12.23
2023-11-07T08:10:41.084Z,12.04
2023-11-07T08:13:11.781Z,11.89
2023-11-07T08:15:39.603Z,11.61
2023-11-07T08:18:10.386Z,11.44
2023-11-07T08:20:40.215Z,11.46
2023-11-07T08:23:08.377Z,11.47
2023-11-07T08:25:36.365Z,11.27
2023-11-07T08:28:11.427Z,11.29
2023-11-07T08:30:39.701Z,11.07
2023-11-07T08:33:09.306Z,11.01
2023-11-07T08:35:40.258Z,10.79
2023-11-07T08:38:08.449Z,10.74
2023-11-07T08:40:36.924Z,10.58
2023-11-07T08:43:04.906Z,10.56
2023-11-07T08:45:34.778Z,10.47
2023-11-07T08:48:03.327Z,10.39
2023-11-07T08:50:31.260Z,10.32
2023-11-07T08:52:59.170Z,10.22
2023-11-07T08:55:28.843Z,10.26
2023-11-07T08:57:56.843Z,10.23
2023-11-07T09:00:25.028Z,10.25
2023-11-07T09:02:54.305Z,10.17
2023-11-07T09:05:23.406Z,10.14
2023-11-07T09:07:52.159Z,10.11
2023-11-07T09:10:21.916Z,9.98
2023-11-07T09:12:49.788Z,10.03
2023-11-07T09:15:21.866Z,9.81
2023-11-07T09:17:50.045Z,9.81
2023-11-07T09:20:17.837Z,9.68
2023-11-07T09:22:45.938Z,9.69
2023-11-07T09:25:14.432Z,9.62
2023-11-07T09:27:42.307Z,9.55
2023-11-07T09:30:11.751Z,9.55
2023-11-07T09:32:46.012Z,9.55
2023-11-07T09:35:13.760Z,9.51
2023-11-07T09:37:42.125Z,9.41
2023-11-07T09:40:14.737Z,9.33
2023-11-07T09:42:42.974Z,9.33
2023-11-07T09:45:16.641Z,9.40
2023-11-07T09:47:49.601Z,9.76
2023-11-07T09:50:18.915Z,9.38
2023-11-07T09:52:49.127Z,9.36
2023-11-07T09:55:17.761Z,9.29
2023-11-07T09:58:09.208Z,9.21
2023-11-07T10:00:46.796Z,9.06
2023-11-07T10:03:16.441Z,9.01
2023-11-07T10:05:48.506Z,8.87
2023-11-07T10:08:17.834Z,8.86
2023-11-07T10:11:05.547Z,8.82
2023-11-07T10:13:33.598Z,8.71
2023-11-07T10:18:51.707Z,8.79
2023-11-07T10:21:33.527Z,8.63
2023-11-07T10:24:01.787Z,8.32
2023-11-07T10:26:33.000Z,8.22
2023-11-07T10:29:18.159Z,8.12
2023-11-07T10:32:05.809Z,8.08
2023-11-07T10:34:34.139Z,7.93
2023-11-07T10:37:02.364Z,7.74
2023-11-07T10:39:31.873Z,7.60
2023-11-07T10:42:20.391Z,7.72
2023-11-07T10:44:51.452Z,7.38
2023-11-07T10:47:21.525Z,7.19
2023-11-07T10:49:50.724Z,7.18
2023-11-07T10:52:19.733Z,7.06
2023-11-07T10:54:47.628Z,6.95
2023-11-07T10:57:23.503Z,6.93
2023-11-07T10:59:54.833Z,6.83
2023-11-07T11:02:25.386Z,6.79
2023-11-07T11:04:53.519Z,6.90
2023-11-07T11:07:22.513Z,6.74
2023-11-07T11:09:50.850Z,6.43
2023-11-07T11:12:22.601Z,6.36
2023-11-07T11:14:52.585Z,6.17
2023-11-07T11:17:40.049Z,6.26
2023-11-07T11:20:28.190Z,6.05
2023-11-07T11:23:09.105Z,6.05
2023-11-07T11:25:53.694Z,5.83
2023-11-07T11:28:38.423Z,5.86
2023-11-07T11:31:06.658Z,5.70
2023-11-07T11:33:37.466Z,5.55
2023-11-07T11:36:45.627Z,5.56
2023-11-07T11:39:46.925Z,5.41
2023-11-07T11:42:14.846Z,5.14
2023-11-07T11:44:42.660Z,5.21
2023-11-07T11:47:49.445Z,5.24
2023-11-07T11:50:17.563Z,5.04
2023-11-07T11:52:45.812Z,4.96
2023-11-07T11:55:14.590Z,5.01
2023-11-07T11:58:12.802Z,5.01
2023-11-07T12:00:43.342Z,4.58
2023-11-07T12:03:17.899Z,4.59
2023-11-07T12:06:07.195Z,4.52
2023-11-07T12:08:37.285Z,4.33
2023-11-07T12:11:06.601Z,4.41
2023-11-07T12:13:35.305Z,4.07
2023-11-07T12:16:15.034Z,4.25
2023-11-07T12:18:43.929Z,4.11
2023-11-07T12:21:12.190Z,4.01
2023-11-07T12:23:39.875Z,3.99
2023-11-07T12:26:09.552Z,4.14
2023-11-07T12:28:43.782Z,3.90
2023-11-07T12:31:22.972Z,3.70
2023-11-07T12:33:53.575Z,3.64
2023-11-07T12:36:21.524Z,3.59
2023-11-07T12:38:49.769Z,3.71
2023-11-07T12:41:17.862Z,3.47
2023-11-07T12:43:47.372Z,3.35
2023-11-07T12:46:18.203Z,3.36
2023-11-07T12:48:46.484Z,3.32
2023-11-07T12:51:23.013Z,3.47
2023-11-07T12:53:55.032Z,3.25
2023-11-07T12:56:22.800Z,3.28
2023-11-07T12:58:50.409Z,3.20
2023-11-07T13:01:18.053Z,3.12
2023-11-07T13:03:45.851Z,2.97
2023-11-07T13:06:20.647Z,2.88
2023-11-07T13:08:48.953Z,2.95
2023-11-07T13:11:19.992Z,2.97
2023-11-07T13:13:51.064Z,2.84
2023-11-07T13:16:20.868Z,2.76
2023-11-07T13:18:50.929Z,2.89
2023-11-07T13:21:18.953Z,2.67
2023-11-07T13:23:46.903Z,2.66
2023-11-07T13:26:15.971Z,2.74
2023-11-07T13:28:45.076Z,2.76
2023-11-07T13:31:15.219Z,2.74
2023-11-07T13:33:47.493Z,2.63
2023-11-07T13:36:17.059Z,2.54
2023-11-07T13:38:49.140Z,2.53
2023-11-07T13:41:17.836Z,2.34
2023-11-07T13:43:46.085Z,2.55
2023-11-07T13:46:20.683Z,2.47
2023-11-07T13:48:53.359Z,2.52
2023-11-07T13:51:24.295Z,2.51
2023-11-07T13:53:52.755Z,2.26
2023-11-07T13:56:21.373Z,2.01
2023-11-07T13:58:50.219Z,2.09
2023-11-07T14:01:18.206Z,2.23
2023-11-07T14:03:48.246Z,2.16
2023-11-07T14:06:19.327Z,2.20
2023-11-07T14:08:47.364Z,2.13
2023-11-07T14:11:18.463Z,2.09
2023-11-07T14:13:51.971Z,1.78
2023-11-07T14:16:21.308Z,2.18
2023-11-07T14:18:51.236Z,2.05
2023-11-07T14:21:23.225Z,2.02
2023-11-07T14:23:51.340Z,1.74
2023-11-07T14:26:19.169Z,1.95
2023-11-07T14:28:55.229Z,2.00
2023-11-07T14:31:31.145Z,1.90
2023-11-07T14:34:00.781Z,1.97
2023-11-07T14:36:29.503Z,2.06
2023-11-07T14:38:57.593Z,1.79
2023-11-07T14:41:25.286Z,1.85
2023-11-07T14:43:53.064Z,1.80
2023-11-07T14:46:21.364Z,1.74
2023-11-07T14:48:49.122Z,1.85
2023-11-07T14:51:18.786Z,1.73
2023-11-07T14:53:46.623Z,1.63
2023-11-07T14:56:14.873Z,1.66
2023-11-07T14:58:42.489Z,1.55
2023-11-07T15:01:12.167Z,1.52
2023-11-07T15:03:42.769Z,1.50
2023-11-07T15:06:24.473Z,1.50
2023-11-07T15:08:59.378Z,1.30
2023-11-07T15:12:16.981Z,1.72
2023-11-07T15:14:49.680Z,1.38
2023-11-07T15:17:20.899Z,1.28
2023-11-07T15:19:49.034Z,1.28
2023-11-07T15:22:25.092Z,1.19
2023-11-07T15:24:53.266Z,1.34
2023-11-07T15:27:26.935Z,1.22
2023-11-07T15:30:01.009Z,1.07
2023-11-07T15:32:32.119Z,0.79
2023-11-07T15:35:00.306Z,0.81
2023-11-07T15:37:28.086Z,0.77
2023-11-07T15:39:55.676Z,0.77
2023-11-07T15:42:23.469Z,0.73
2023-11-07T15:44:53.299Z,0.61
2023-11-07T15:47:21.047Z,0.54
2023-11-07T15:49:48.713Z,0.53
2023-11-07T15:52:17.261Z,0.48
2023-11-07T15:54:45.164Z,0.43
2023-11-07T15:57:14.435Z,0.47
2023-11-07T15:59:45.253Z,0.54
2023-11-07T16:02:17.342Z,0.15
2023-11-07T16:04:57.983Z,0.27
2023-11-07T16:07:25.695Z,0.28
2023-11-07T16:10:20.030Z,0.41
2023-11-07T16:12:54.104Z,0.34
2023-11-07T16:15:34.973Z,0.34
2023-11-07T16:18:09.609Z,0.36
2023-11-07T16:20:38.782Z,0.32
2023-11-07T16:23:10.119Z,0.32
2023-11-07T16:25:38.841Z,0.29
2023-11-07T16:28:10.408Z,0.36
2023-11-07T16:30:40.317Z,0.22
2023-11-07T16:33:13.861Z,0.04
2023-11-07T16:35:42.003Z,0.16
2023-11-07T16:38:09.957Z,0.18
2023-11-07T16:40:37.894Z,0.23
2023-11-07T16:43:06.747Z,0.26
2023-11-07T16:45:35.297Z,0.24
2023-11-07T16:48:05.636Z,0.27
2023-11-07T16:50:34.508Z,0.02
2023-11-07T16:53:02.328Z,0.31
2023-11-07T16:55:30.132Z,0.17
2023-11-07T16:57:59.961Z,0.33
2023-11-07T17:00:27.982Z,0.25
2023-11-07T17:02:58.310Z,0.22
2023-11-07T17:05:26.204Z,0.24
2023-11-07T17:07:56.628Z,0.16
2023-11-07T17:10:28.867Z,0.06
2023-11-07T17:12:58.015Z,0.13
2023-11-07T17:15:27.255Z,-0.16
2023-11-07T17:17:56.649Z,0.12
2023-11-07T17:20:57.581Z,0.20
2023-11-07T17:23:28.134Z,0.11
2023-11-07T17:26:10.146Z,0.16
2023-11-07T17:28:48.566Z,0.01
2023-11-07T17:31:18.299Z,0.23
2023-11-07T17:33:48.189Z,0.13
2023-11-07T17:36:16.884Z,0.20
2023-11-07T17:38:57.052Z,0.22
2023-11-07T17:41:34.828Z,0.16
2023-11-07T17:44:06.705Z,0.07
2023-11-07T17:46:35.968Z,0.26
2023-11-07T17:49:05.740Z,0.38
2023-11-07T17:51:33.576Z,0.27
2023-11-07T17:54:01.482Z,0.27
2023-11-07T17:56:29.800Z,0.40
2023-11-07T17:58:57.356Z,0.17
2023-11-07T18:01:25.032Z,0.16
2023-11-07T18:03:53.003Z,0.33
2023-11-07T18:06:23.412Z,0.33
2023-11-07T18:08:54.834Z,0.31
2023-11-07T18:11:23.170Z,0.33
2023-11-07T18:13:53.529Z,0.25
2023-11-07T18:19:24.697Z,-0.07
2023-11-07T18:22:02.674Z,-0.12
2023-11-07T18:24:34.748Z,0.16
2023-11-07T18:27:02.832Z,0.02
2023-11-07T18:29:33.689Z,0.14
2023-11-07T18:32:03.087Z,0.13
2023-11-07T18:34:30.965Z,0.11
2023-11-07T18:37:00.798Z,0.06
2023-11-07T18:39:30.793Z,0.12
2023-11-07T18:42:01.580Z,-0.06
2023-11-07T18:44:32.405Z,-0.06
2023-11-07T18:47:00.408Z,-0.04
2023-11-07T18:49:35.349Z,-0.02
2023-11-07T18:52:04.474Z,0.18
2023-11-07T18:54:32.520Z,0.17
2023-11-07T18:57:00.378Z,0.10
2023-11-07T18:59:36.958Z,0.10
2023-11-07T19:02:11.369Z,0.17
2023-11-07T19:04:39.389Z,0.21
2023-11-07T19:07:09.334Z,0.12
2023-11-07T19:09:37.515Z,0.15
2023-11-07T19:12:08.075Z,0.06
2023-11-07T19:14:36.021Z,-0.04
2023-11-07T19:17:03.609Z,0.01
2023-11-07T19:19:31.502Z,-0.03
2023-11-07T19:22:09.333Z,-0.04
2023-11-07T19:24:38.679Z,-0.29
2023-11-07T19:27:06.731Z,-0.09
2023-11-07T19:29:34.803Z,-0.20
2023-11-07T19:32:04.018Z,-0.13
2023-11-07T19:34:32.053Z,-0.14
2023-11-07T19:37:00.062Z,-0.21
2023-11-07T19:39:30.460Z,-0.07
2023-11-07T19:42:03.361Z,-0.10
2023-11-07T19:44:32.094Z,0.02
2023-11-07T19:46:59.784Z,-0.01
2023-11-07T19:49:29.044Z,0.09
2023-11-07T19:51:59.553Z,0.13
2023-11-07T19:54:28.170Z,0.02
2023-11-07T19:56:56.245Z,-0.04
2023-11-07T19:59:24.959Z,-0.04
2023-11-07T20:01:53.945Z,0.03
2023-11-07T20:04:22.031Z,-0.04
2023-11-07T20:06:50.813Z,-0.12
2023-11-07T20:09:19.480Z,0.03
2023-11-07T20:11:48.047Z,-0.04
2023-11-07T20:14:15.703Z,-0.08
2023-11-07T20:16:43.588Z,-0.19
2023-11-07T20:19:11.239Z,-0.11
2023-11-07T20:21:38.897Z,-0.22
2023-11-07T20:24:07.340Z,-0.31
2023-11-07T20:26:35.145Z,-0.31
2023-11-07T20:29:02.809Z,-0.21
2023-11-07T20:31:30.653Z,-0.17
2023-11-07T20:33:58.304Z,-0.24
2023-11-07T20:36:26.863Z,-0.14
2023-11-07T20:38:55.103Z,-0.20
2023-11-07T20:41:23.170Z,-0.11
2023-11-07T20:43:56.265Z,-0.36
2023-11-07T20:48:55.322Z,-0.30
2023-11-07T20:51:23.225Z,-0.24
2023-11-07T20:53:50.918Z,-0.16
2023-11-07T20:56:21.060Z,-0.22
2023-11-07T20:58:48.578Z,-0.11
2023-11-07T21:01:17.907Z,-0.09
2023-11-07T21:03:45.613Z,-0.11
2023-11-07T21:06:13.419Z,-0.25
2023-11-07T21:08:41.551Z,-0.25
2023-11-07T21:11:31.128Z,-0.33
2023-11-07T21:14:09.409Z,-0.40
2023-11-07T21:16:37.981Z,-0.56
2023-11-07T21:19:06.859Z,-0.52
2023-11-07T21:21:34.539Z,-0.57
2023-11-07T21:24:02.258Z,-0.38
2023-11-07T21:26:29.953Z,-0.32
2023-11-07T21:28:57.902Z,-0.31
2023-11-07T21:31:25.613Z,-0.34
2023-11-07T21:33:53.516Z,-0.46
2023-11-07T21:36:21.152Z,-0.54
2023-11-07T21:38:49.539Z,-0.52
2023-11-07T21:41:17.641Z,-0.60
2023-11-07T21:43:46.149Z,-0.53
2023-11-07T21:46:13.982Z,-0.64
2023-11-07T21:48:41.691Z,-0.64
2023-11-07T21:51:11.672Z,-0.64
2023-11-07T21:53:39.723Z,-0.58
2023-11-07T21:56:07.372Z,-0.58
2023-11-07T21:58:35.036Z,-0.64
2023-11-07T22:01:02.781Z,-0.57
2023-11-07T22:03:31.208Z,-0.54
2023-11-07T22:06:00.007Z,-0.62
2023-11-07T22:08:27.603Z,-0.62
2023-11-07T22:10:55.340Z,-0.48
2023-11-07T22:13:24.344Z,-0.45
2023-11-07T22:15:53.281Z,-0.42
2023-11-07T22:18:20.969Z,-0.48
2023-11-07T22:20:48.783Z,-0.56
2023-11-07T22:23:16.654Z,-0.47
2023-11-07T22:25:44.290Z,-0.47
2023-11-07T22:28:12.000Z,-0.49
2023-11-07T22:30:39.855Z,-0.38
2023-11-07T22:33:08.644Z,-0.46
2023-11-07T22:35:36.706Z,-0.43
2023-11-07T22:38:06.927Z,-0.30
2023-11-07T22:40:35.333Z,-0.31
2023-11-07T22:43:03.089Z,-0.35
2023-11-07T22:45:31.434Z,-0.38
2023-11-07T22:47:59.039Z,-0.43
2023-11-07T22:50:26.829Z,-0.28
2023-11-07T22:52:54.442Z,-0.19
2023-11-07T22:55:22.204Z,-0.30
2023-11-07T22:57:49.898Z,-0.26
2023-11-07T23:00:29.218Z,-0.35
2023-11-07T23:03:01.584Z,-0.28
2023-11-07T23:05:29.428Z,-0.19
2023-11-07T23:07:57.151Z,-0.18
2023-11-07T23:10:25.064Z,-0.27
2023-11-07T23:12:58.965Z,-0.11
2023-11-07T23:15:39.227Z,-0.43
2023-11-07T23:18:08.691Z,-0.36
2023-11-07T23:20:42.452Z,-0.31
2023-11-07T23:23:21.380Z,-0.55
2023-11-07T23:25:52.429Z,-0.44
2023-11-07T23:28:21.256Z,-0.72
2023-11-07T23:30:51.444Z,-0.28
2023-11-07T23:33:19.670Z,-0.26
2023-11-07T23:35:47.643Z,-0.27
2023-11-07T23:38:15.988Z,-0.24
2023-11-07T23:40:45.332Z,-0.24
2023-11-07T23:43:14.631Z,-0.05
2023-11-07T23:45:42.317Z,-0.10
2023-11-07T23:48:10.552Z,-0.09
2023-11-07T23:50:38.687Z,-0.12
2023-11-07T23:53:06.370Z,-0.10
2023-11-07T23:55:35.521Z,-0.20
2023-11-07T23:58:03.242Z,-0.14
